createdAt,value
2018-12-15T00:01:53.634Z,96089.36
2018-12-15T00:04:32.996Z,96092.77
2018-12-15T00:07:09.784Z,96093.97
2018-12-15T00:12:20.649Z,96096.03
2018-12-15T00:15:00.070Z,96097.16
2018-12-15T00:17:40.733Z,96100.25
2018-12-15T00:20:15.807Z,96100.38
2018-12-15T00:22:56.756Z,96101.00
2018-12-15T00:25:36.666Z,96106.23
2018-12-15T00:28:11.128Z,96103.81
2018-12-15T00:30:49.229Z,96104.20
2018-12-15T00:33:30.210Z,96103.48
2018-12-15T00:36:08.715Z,96098.48
2018-12-15T00:38:50.341Z,96101.06
2018-12-15T00:41:30.471Z,96108.98
2018-12-15T00:44:08.383Z,96107.89
2018-12-15T00:46:48.338Z,96114.96
2018-12-15T00:49:23.504Z,96112.02
2018-12-15T00:52:01.731Z,96114.73
2018-12-15T00:57:25.603Z,96119.23
2018-12-15T01:00:04.815Z,96116.58
2018-12-15T01:02:41.302Z,96111.77
2018-12-15T01:05:16.639Z,96111.94
2018-12-15T01:07:56.280Z,96119.55
2018-12-15T01:10:45.373Z,96125.31
2018-12-15T01:13:23.567Z,96124.19
2018-12-15T01:15:58.571Z,96126.78
2018-12-15T01:18:35.250Z,96129.90
2018-12-15T01:21:16.781Z,96132.39
2018-12-15T01:23:51.242Z,96133.86
2018-12-15T01:26:29.388Z,96135.89
2018-12-15T01:29:06.915Z,96135.76
2018-12-15T01:31:42.984Z,96131.87
2018-12-15T01:34:18.639Z,96131.77
2018-12-15T01:37:03.547Z,96126.17
2018-12-15T01:39:43.132Z,96126.98
2018-12-15T01:42:21.272Z,96138.13
2018-12-15T01:44:57.110Z,96133.02
2018-12-15T01:47:38.414Z,96137.36
2018-12-15T01:50:17.127Z,96141.80
2018-12-15T01:52:51.562Z,96137.36
2018-12-15T01:55:30.258Z,96139.98
2018-12-15T01:58:14.534Z,96132.62
2018-12-15T02:00:54.265Z,96140.47
2018-12-15T02:03:30.435Z,96136.45
2018-12-15T02:06:08.503Z,96137.75
2018-12-15T02:08:47.909Z,96137.00
2018-12-15T02:11:35.323Z,96137.55
2018-12-15T02:14:10.396Z,96137.23
2018-12-15T02:16:45.282Z,96146.81
2018-12-15T02:19:26.267Z,96144.55
2018-12-15T02:22:05.166Z,96147.30
2018-12-15T02:24:44.192Z,96146.78
2018-12-15T02:27:23.053Z,96150.87
2018-12-15T02:29:59.390Z,96152.48
2018-12-15T02:32:38.452Z,96147.48
2018-12-15T02:35:16.784Z,96150.13
2018-12-15T02:37:56.745Z,96144.98
2018-12-15T02:40:37.676Z,96146.28
2018-12-15T02:43:24.734Z,96150.31
2018-12-15T02:45:59.581Z,96153.91
2018-12-15T02:48:40.569Z,96154.23
2018-12-15T02:51:19.214Z,96156.82
2018-12-15T02:53:55.643Z,96155.61
2018-12-15T02:56:35.127Z,96156.06
2018-12-15T02:59:11.223Z,96158.30
2018-12-15T03:01:51.718Z,96160.19
2018-12-15T03:04:40.277Z,96158.78
2018-12-15T03:07:14.605Z,96155.31
2018-12-15T03:09:49.230Z,96158.91
2018-12-15T03:12:29.840Z,96160.05
2018-12-15T03:15:05.865Z,96165.75
2018-12-15T03:17:49.019Z,96166.83
2018-12-15T03:20:27.497Z,96169.38
2018-12-15T03:23:05.395Z,96168.83
2018-12-15T03:25:43.555Z,96168.49
2018-12-15T03:28:22.496Z,96174.61
2018-12-15T03:30:57.669Z,96172.52
2018-12-15T03:33:36.921Z,96172.55
2018-12-15T03:36:14.807Z,96175.83
2018-12-15T03:38:55.893Z,96177.06
2018-12-15T03:41:36.700Z,96177.16
2018-12-15T03:44:14.538Z,96175.27
2018-12-15T03:46:52.740Z,96170.56
2018-12-15T03:49:33.621Z,96175.37
2018-12-15T03:52:14.048Z,96175.42
2018-12-15T03:54:52.329Z,96175.13
2018-12-15T03:57:31.816Z,96175.19
2018-12-15T04:00:10.531Z,96173.45
2018-12-15T04:02:50.637Z,96171.05
2018-12-15T04:05:31.157Z,96170.27
2018-12-15T04:08:09.748Z,96172.08
2018-12-15T04:10:50.205Z,96177.55
2018-12-15T04:13:28.552Z,96178.36
2018-12-15T04:16:08.935Z,96183.09
2018-12-15T04:18:46.275Z,96182.80
2018-12-15T04:21:23.018Z,96173.64
2018-12-15T04:24:04.426Z,96177.47
2018-12-15T04:26:39.231Z,96175.37
2018-12-15T04:29:19.815Z,96177.94
2018-12-15T04:31:54.782Z,96182.95
2018-12-15T04:34:29.940Z,96183.67
2018-12-15T04:37:11.154Z,96184.88
2018-12-15T04:39:48.056Z,96187.33
2018-12-15T04:42:25.772Z,96192.89
2018-12-15T04:45:00.264Z,96196.09
2018-12-15T04:47:39.585Z,96193.88
2018-12-15T04:50:14.243Z,96194.34
2018-12-15T04:52:49.700Z,96194.31
2018-12-15T04:55:24.027Z,96196.92
2018-12-15T04:58:00.950Z,96196.53
2018-12-15T05:00:40.097Z,96197.73
2018-12-15T05:05:47.214Z,96194.45
2018-12-15T05:08:29.010Z,96206.39
2018-12-15T05:11:04.081Z,96210.50
2018-12-15T05:13:39.880Z,96215.70
2018-12-15T05:16:17.623Z,96223.41
2018-12-15T05:18:57.137Z,96215.88
2018-12-15T05:21:33.470Z,96219.32
2018-12-15T05:24:12.044Z,96222.95
2018-12-15T05:26:52.291Z,96222.31
2018-12-15T05:29:33.466Z,96223.45
2018-12-15T05:32:08.349Z,96231.14
2018-12-15T05:34:42.670Z,96225.23
2018-12-15T05:37:22.303Z,96228.36
2018-12-15T05:40:03.498Z,96222.34
2018-12-15T05:42:44.744Z,96233.73
2018-12-15T05:45:19.787Z,96235.07
2018-12-15T05:47:58.229Z,96228.26
2018-12-15T05:50:36.181Z,96229.18
2018-12-15T05:53:11.067Z,96237.63
2018-12-15T05:55:47.671Z,96243.74
2018-12-15T05:58:23.861Z,96240.48
2018-12-15T06:01:14.837Z,96239.62
2018-12-15T06:03:53.730Z,96249.20
2018-12-15T06:06:32.411Z,96247.84
2018-12-15T06:11:44.308Z,96256.94
2018-12-15T06:14:23.407Z,96259.20
2018-12-15T06:17:03.931Z,96258.59
2018-12-15T06:19:42.649Z,96258.69
2018-12-15T06:22:23.678Z,96247.38
2018-12-15T06:24:58.156Z,96242.92
2018-12-15T06:27:33.274Z,96246.19
2018-12-15T06:30:09.421Z,96254.11
2018-12-15T06:32:51.082Z,96246.66
2018-12-15T06:35:26.998Z,96255.30
2018-12-15T06:38:08.121Z,96256.50
2018-12-15T06:40:46.030Z,96261.48
2018-12-15T06:43:26.818Z,96253.59
2018-12-15T06:46:06.929Z,96260.50
2018-12-15T06:48:44.599Z,96249.75
2018-12-15T06:51:21.611Z,96262.50
2018-12-15T06:53:59.879Z,96258.41
2018-12-15T06:56:41.105Z,96257.95
2018-12-15T06:59:22.407Z,96255.12
2018-12-15T07:02:03.008Z,96263.58
2018-12-15T07:04:39.460Z,96263.86
2018-12-15T07:07:26.011Z,96272.33
2018-12-15T07:10:07.378Z,96264.06
2018-12-15T07:12:42.782Z,96271.52
2018-12-15T07:15:20.538Z,96269.79
2018-12-15T07:18:01.275Z,96272.69
2018-12-15T07:20:38.948Z,96282.07
2018-12-15T07:23:18.037Z,96280.61
2018-12-15T07:25:52.828Z,96279.00
2018-12-15T07:28:27.570Z,96281.44
2018-12-15T07:31:02.149Z,96285.98
2018-12-15T07:33:37.082Z,96287.34
2018-12-15T07:36:11.465Z,96284.50
2018-12-15T07:38:45.836Z,96285.62
2018-12-15T07:41:20.311Z,96293.17
2018-12-15T07:43:54.762Z,96295.70
2018-12-15T07:46:39.426Z,96294.55
2018-12-15T07:49:14.354Z,96295.97
2018-12-15T07:51:48.865Z,96296.91
2018-12-15T07:54:30.991Z,96298.37
2018-12-15T08:00:09.305Z,96286.89
2018-12-15T08:02:52.432Z,96287.64
2018-12-15T08:05:31.971Z,96288.47
2018-12-15T08:08:13.031Z,96289.66
2018-12-15T08:10:58.858Z,96291.00
2018-12-15T08:13:42.495Z,96294.82
2018-12-15T08:16:17.005Z,96295.63
2018-12-15T08:18:57.897Z,96304.95
2018-12-15T08:21:40.786Z,96297.20
2018-12-15T08:24:19.163Z,96304.30
2018-12-15T08:26:55.372Z,96299.20
2018-12-15T08:29:47.415Z,96300.41
2018-12-15T08:32:40.312Z,96305.19
2018-12-15T08:35:22.784Z,96303.53
2018-12-15T08:37:58.903Z,96305.71
2018-12-15T08:40:40.054Z,96310.27
2018-12-15T08:43:15.068Z,96312.59
2018-12-15T08:54:39.415Z,96315.48
2018-12-15T08:57:18.174Z,96311.87
2018-12-15T09:00:04.231Z,96309.52
2018-12-15T09:05:36.471Z,96315.09
2018-12-15T09:08:11.135Z,96314.78
2018-12-15T09:11:03.994Z,96316.94
2018-12-15T09:13:40.424Z,96310.63
2018-12-15T09:16:15.042Z,96315.91
2018-12-15T09:19:01.532Z,96310.35
2018-12-15T09:24:35.831Z,96311.81
2018-12-15T09:27:10.459Z,96305.74
2018-12-15T09:32:41.603Z,96302.62
2018-12-15T09:35:20.156Z,96298.61
2018-12-15T09:38:11.221Z,96301.12
2018-12-15T09:40:51.884Z,96299.70
2018-12-15T09:43:32.718Z,96299.61
2018-12-15T09:46:22.087Z,96301.89
2018-12-15T09:48:57.991Z,96290.23
2018-12-15T09:51:40.854Z,96293.47
2018-12-15T09:54:22.154Z,96284.80
2018-12-15T09:57:01.265Z,96285.34
2018-12-15T09:59:38.948Z,96285.72
2018-12-15T10:02:14.073Z,96283.64
2018-12-15T10:04:48.990Z,96281.42
2018-12-15T10:07:23.298Z,96270.89
2018-12-15T10:09:57.941Z,96267.15
2018-12-15T10:12:33.387Z,96271.81
2018-12-15T10:15:08.760Z,96270.33
2018-12-15T10:17:43.316Z,96272.78
2018-12-15T10:20:18.054Z,96263.59
2018-12-15T10:22:52.365Z,96267.78
2018-12-15T10:25:27.615Z,96259.86
2018-12-15T10:28:02.182Z,96249.84
2018-12-15T10:30:41.934Z,96255.58
2018-12-15T10:33:16.343Z,96247.47
2018-12-15T10:35:50.979Z,96245.73
2018-12-15T10:38:25.808Z,96239.47
2018-12-15T10:41:00.727Z,96234.55
2018-12-15T10:43:35.463Z,96236.45
2018-12-15T10:46:10.022Z,96237.92
2018-12-15T10:48:45.208Z,96247.67
2018-12-15T10:51:19.711Z,96233.82
2018-12-15T10:53:54.483Z,96232.34
2018-12-15T10:56:29.704Z,96228.23
2018-12-15T10:59:04.227Z,96228.07
2018-12-15T11:01:39.156Z,96223.59
2018-12-15T11:04:13.806Z,96228.72
2018-12-15T11:06:48.723Z,96229.27
2018-12-15T11:09:24.094Z,96230.34
2018-12-15T11:11:59.446Z,96233.63
2018-12-15T11:14:34.527Z,96231.34
2018-12-15T11:17:09.111Z,96222.50
2018-12-15T11:19:43.514Z,96222.42
2018-12-15T11:22:18.110Z,96221.05
2018-12-15T11:24:52.802Z,96215.38
2018-12-15T11:27:27.727Z,96205.33
2018-12-15T11:30:07.902Z,96201.99
2018-12-15T11:32:42.452Z,96202.12
2018-12-15T11:35:17.383Z,96198.69
2018-12-15T11:37:52.119Z,96199.22
2018-12-15T11:40:26.853Z,96197.48
2018-12-15T11:43:01.310Z,96195.42
2018-12-15T11:45:36.211Z,96200.72
2018-12-15T11:48:10.740Z,96197.02
2018-12-15T11:50:45.274Z,96191.22
2018-12-15T11:53:19.611Z,96191.73
2018-12-15T11:55:54.523Z,96192.28
2018-12-15T11:58:29.459Z,96190.66
2018-12-15T12:01:05.122Z,96192.34
2018-12-15T12:03:39.519Z,96191.22
2018-12-15T12:06:14.050Z,96189.89
2018-12-15T12:08:49.672Z,96195.34
2018-12-15T12:11:24.062Z,96193.20
2018-12-15T12:14:00.413Z,96184.53
2018-12-15T12:16:35.186Z,96187.69
2018-12-15T12:19:10.111Z,96184.63
2018-12-15T12:21:44.903Z,96179.91
2018-12-15T12:24:20.281Z,96175.56
2018-12-15T12:26:54.743Z,96174.05
2018-12-15T12:29:29.435Z,96169.87
2018-12-15T12:32:04.235Z,96172.20
2018-12-15T12:34:38.626Z,96165.32
2018-12-15T12:37:12.981Z,96171.00
2018-12-15T12:39:47.509Z,96166.30
2018-12-15T12:42:22.433Z,96161.70
2018-12-15T12:44:57.492Z,96163.89
2018-12-15T12:47:32.259Z,96167.61
2018-12-15T12:50:07.790Z,96167.19
2018-12-15T12:52:42.180Z,96172.39
2018-12-15T12:55:16.782Z,96172.55
2018-12-15T12:57:52.161Z,96169.05
2018-12-15T13:00:27.451Z,96163.92
2018-12-15T13:03:01.777Z,96171.14
2018-12-15T13:05:36.406Z,96165.48
2018-12-15T13:08:10.975Z,96159.40
2018-12-15T13:10:45.534Z,96158.78
2018-12-15T13:13:20.416Z,96163.30
2018-12-15T13:15:54.728Z,96164.30
2018-12-15T13:18:29.829Z,96168.20
2018-12-15T13:21:04.923Z,96164.96
2018-12-15T13:23:39.245Z,96170.48
2018-12-15T13:26:14.082Z,96162.52
2018-12-15T13:28:48.639Z,96165.52
2018-12-15T13:31:23.343Z,96165.61
2018-12-15T13:33:58.250Z,96171.06
2018-12-15T13:36:33.275Z,96176.44
2018-12-15T13:39:08.751Z,96173.54
2018-12-15T13:41:43.707Z,96169.05
2018-12-15T13:44:18.063Z,96165.81
2018-12-15T13:46:52.546Z,96171.90
2018-12-15T13:49:27.688Z,96172.13
2018-12-15T13:52:02.554Z,96178.11
2018-12-15T13:54:37.019Z,96179.03
2018-12-15T13:57:11.926Z,96180.31
2018-12-15T13:59:46.350Z,96178.94
2018-12-15T14:02:20.816Z,96176.84
2018-12-15T14:04:55.559Z,96181.91
2018-12-15T14:07:30.111Z,96180.80
2018-12-15T14:10:07.254Z,96172.53
2018-12-15T14:12:41.582Z,96172.94
2018-12-15T14:15:16.402Z,96174.16
2018-12-15T14:17:51.284Z,96177.95
2018-12-15T14:20:26.538Z,96175.95
2018-12-15T14:23:01.201Z,96175.47
2018-12-15T14:25:38.211Z,96182.04
2018-12-15T14:28:12.836Z,96178.73
2018-12-15T14:30:47.316Z,96182.42
2018-12-15T14:33:22.415Z,96179.33
2018-12-15T14:35:58.197Z,96183.34
2018-12-15T14:38:33.153Z,96178.11
2018-12-15T14:41:07.707Z,96181.07
2018-12-15T14:43:44.059Z,96177.92
2018-12-15T14:46:20.417Z,96173.80
2018-12-15T14:48:55.958Z,96184.64
2018-12-15T14:51:30.735Z,96186.27
2018-12-15T14:54:05.528Z,96179.08
2018-12-15T14:56:40.083Z,96170.66
2018-12-15T14:59:18.278Z,96174.91
2018-12-15T15:01:53.111Z,96170.52
2018-12-15T15:04:27.707Z,96174.87
2018-12-15T15:10:00.011Z,96168.63
2018-12-15T15:12:34.983Z,96181.84
2018-12-15T15:15:10.294Z,96176.73
2018-12-15T15:20:41.831Z,96181.53
2018-12-15T15:23:34.352Z,96175.78
2018-12-15T15:26:09.474Z,96171.11
2018-12-15T15:28:44.680Z,96172.05
2018-12-15T15:31:19.526Z,96173.73
2018-12-15T15:33:54.053Z,96177.56
2018-12-15T15:36:28.559Z,96180.91
2018-12-15T15:39:04.633Z,96174.70
2018-12-15T15:41:39.163Z,96174.44
2018-12-15T15:44:14.279Z,96176.26
2018-12-15T15:46:48.766Z,96171.61
2018-12-15T15:49:23.637Z,96175.08
2018-12-15T15:51:57.991Z,96172.08
2018-12-15T15:54:33.834Z,96171.53
2018-12-15T15:57:09.530Z,96172.16
2018-12-15T15:59:44.470Z,96170.89
2018-12-15T16:02:18.910Z,96177.92
2018-12-15T16:04:54.951Z,96170.08
2018-12-15T16:07:29.484Z,96173.61
2018-12-15T16:10:05.685Z,96163.84
2018-12-15T16:12:40.624Z,96165.03
2018-12-15T16:15:16.300Z,96163.06
2018-12-15T16:17:51.255Z,96160.31
2018-12-15T16:20:43.296Z,96160.38
2018-12-15T16:23:19.482Z,96159.49
2018-12-15T16:25:54.088Z,96167.05
2018-12-15T16:28:28.495Z,96160.09
2018-12-15T16:31:03.508Z,96160.84
2018-12-15T16:33:37.942Z,96153.25
2018-12-15T16:36:12.866Z,96157.38
2018-12-15T16:38:47.174Z,96160.58
2018-12-15T16:41:22.060Z,96155.55
2018-12-15T16:43:56.364Z,96152.83
2018-12-15T16:46:33.764Z,96149.20
2018-12-15T16:49:08.469Z,96146.48
2018-12-15T16:51:42.794Z,96153.59
2018-12-15T16:54:17.755Z,96149.30
2018-12-15T16:56:52.811Z,96155.32
2018-12-15T16:59:27.754Z,96150.30
2018-12-15T17:02:02.430Z,96136.37
2018-12-15T17:04:36.875Z,96136.56
2018-12-15T17:07:12.598Z,96140.72
2018-12-15T17:09:48.374Z,96141.73
2018-12-15T17:12:23.085Z,96138.77
2018-12-15T17:14:57.628Z,96136.95
2018-12-15T17:17:32.523Z,96139.48
2018-12-15T17:20:10.031Z,96131.56
2018-12-15T17:22:44.659Z,96132.66
2018-12-15T17:25:19.643Z,96130.02
2018-12-15T17:27:54.566Z,96136.21
2018-12-15T17:30:29.029Z,96130.03
2018-12-15T17:33:04.438Z,96132.67
2018-12-15T17:35:39.674Z,96126.22
2018-12-15T17:38:14.521Z,96137.59
2018-12-15T17:40:57.156Z,96131.57
2018-12-15T17:43:31.930Z,96126.03
2018-12-15T17:46:06.475Z,96122.30
2018-12-15T17:48:41.080Z,96123.30
2018-12-15T17:51:15.611Z,96110.58
2018-12-15T17:53:50.318Z,96116.30
2018-12-15T17:56:24.782Z,96113.64
2018-12-15T17:58:59.343Z,96115.13
2018-12-15T18:01:34.698Z,96109.66
2018-12-15T18:04:09.291Z,96098.92
2018-12-15T18:09:18.019Z,96098.19
2018-12-15T18:11:53.469Z,96093.81
2018-12-15T18:14:28.426Z,96092.36
2018-12-15T18:17:03.559Z,96087.08
2018-12-15T18:19:38.660Z,96088.91
2018-12-15T18:22:13.519Z,96084.19
2018-12-15T18:24:48.517Z,96089.73
2018-12-15T18:27:23.211Z,96081.44
2018-12-15T18:30:05.610Z,96076.98
2018-12-15T18:35:36.499Z,96058.72
2018-12-15T18:38:11.187Z,96059.59
2018-12-15T18:40:47.011Z,96055.88
2018-12-15T18:43:21.356Z,96059.52
2018-12-15T18:45:56.638Z,96061.70
2018-12-15T18:48:31.128Z,96056.52
2018-12-15T18:51:05.533Z,96058.70
2018-12-15T18:53:39.998Z,96061.05
2018-12-15T18:56:14.913Z,96056.42
2018-12-15T18:58:50.410Z,96054.78
2018-12-15T19:01:25.744Z,96055.09
2018-12-15T19:04:00.904Z,96058.52
2018-12-15T19:06:35.571Z,96059.54
2018-12-15T19:09:10.675Z,96056.25
2018-12-15T19:11:45.619Z,96058.08
2018-12-15T19:14:20.166Z,96051.89
2018-12-15T19:16:54.934Z,96043.78
2018-12-15T19:19:29.389Z,96036.34
2018-12-15T19:22:04.199Z,96035.98
2018-12-15T19:24:38.560Z,96040.06
2018-12-15T19:27:13.500Z,96031.96
2018-12-15T19:29:48.166Z,96027.07
2018-12-15T19:32:22.618Z,96024.52
2018-12-15T19:34:57.140Z,96024.08
2018-12-15T19:37:31.626Z,96026.60
2018-12-15T19:40:07.426Z,96018.53
2018-12-15T19:42:41.952Z,96014.05
2018-12-15T19:45:17.080Z,96019.53
2018-12-15T19:47:51.418Z,96010.80
2018-12-15T19:50:26.139Z,96006.98
2018-12-15T19:53:00.645Z,95999.53
2018-12-15T19:55:35.790Z,95999.63
2018-12-15T19:58:11.180Z,96000.95
2018-12-15T20:00:45.837Z,95991.23
2018-12-15T20:03:20.979Z,95988.77
2018-12-15T20:05:56.007Z,95981.12
2018-12-15T20:08:31.290Z,95974.28
2018-12-15T20:11:05.691Z,95969.37
2018-12-15T20:13:40.033Z,95963.75
2018-12-15T20:16:14.695Z,95965.48
2018-12-15T20:18:49.276Z,95956.27
2018-12-15T20:21:24.390Z,95955.39
2018-12-15T20:23:59.062Z,95952.30
2018-12-15T20:26:33.634Z,95945.31
2018-12-15T20:29:08.382Z,95940.32
2018-12-15T20:31:43.474Z,95930.78
2018-12-15T20:34:17.993Z,95932.23
2018-12-15T20:36:52.771Z,95926.24
2018-12-15T20:39:27.062Z,95916.16
2018-12-15T20:42:01.402Z,95912.12
2018-12-15T20:44:41.716Z,95911.08
2018-12-15T20:47:13.711Z,95908.50
2018-12-15T20:49:48.115Z,95907.81
2018-12-15T20:52:22.458Z,95893.66
2018-12-15T20:54:57.231Z,95894.42
2018-12-15T20:57:31.717Z,95891.24
2018-12-15T21:00:08.623Z,95887.43
2018-12-15T21:02:43.213Z,95880.95
2018-12-15T21:05:17.747Z,95883.86
2018-12-15T21:07:53.016Z,95879.78
2018-12-15T21:10:27.451Z,95875.11
2018-12-15T21:13:01.758Z,95870.08
2018-12-15T21:15:40.635Z,95866.00
2018-12-15T21:18:15.542Z,95859.87
2018-12-15T21:20:50.007Z,95859.83
2018-12-15T21:23:24.743Z,95855.20
2018-12-15T21:25:59.339Z,95846.98
2018-12-15T21:28:33.995Z,95852.97
2018-12-15T21:31:08.925Z,95847.59
2018-12-15T21:33:43.387Z,95840.27
2018-12-15T21:36:18.706Z,95840.51
2018-12-15T21:38:53.992Z,95849.40
2018-12-15T21:41:28.733Z,95842.05
2018-12-15T21:44:04.349Z,95843.23
2018-12-15T21:46:38.790Z,95843.59
2018-12-15T21:49:13.719Z,95852.84
2018-12-15T21:51:48.435Z,95851.30
2018-12-15T21:54:23.085Z,95843.83
2018-12-15T21:56:57.856Z,95847.53
2018-12-15T21:59:32.412Z,95842.81
2018-12-15T22:02:07.620Z,95831.98
2018-12-15T22:04:44.911Z,95835.60
2018-12-15T22:07:19.207Z,95835.14
2018-12-15T22:09:53.688Z,95836.86
2018-12-15T22:12:28.395Z,95835.00
2018-12-15T22:15:03.943Z,95831.91
2018-12-15T22:17:38.361Z,95823.66
2018-12-15T22:20:13.554Z,95817.40
2018-12-15T22:22:48.022Z,95813.28
2018-12-15T22:25:22.408Z,95809.94
2018-12-15T22:27:57.385Z,95805.94
2018-12-15T22:30:32.379Z,95799.13
2018-12-15T22:33:07.281Z,95794.73
2018-12-15T22:35:42.275Z,95793.64
2018-12-15T22:38:17.042Z,95785.56
2018-12-15T22:40:51.951Z,95780.66
2018-12-15T22:43:26.780Z,95777.98
2018-12-15T22:46:01.792Z,95778.97
2018-12-15T22:48:41.004Z,95773.08
2018-12-15T22:51:15.858Z,95774.44
2018-12-15T22:53:50.747Z,95766.05
2018-12-15T22:56:25.423Z,95760.98
2018-12-15T22:59:00.303Z,95763.42
2018-12-15T23:01:40.375Z,95755.45
2018-12-15T23:04:15.709Z,95750.38
2018-12-15T23:06:50.386Z,95749.11
2018-12-15T23:09:24.783Z,95745.84
2018-12-15T23:12:00.521Z,95740.11
2018-12-15T23:14:35.359Z,95747.04
2018-12-15T23:17:10.554Z,95741.32
2018-12-15T23:19:44.995Z,95750.73
2018-12-15T23:22:19.411Z,95742.59
2018-12-15T23:24:54.038Z,95749.27
2018-12-15T23:27:30.359Z,95743.02
2018-12-15T23:30:07.344Z,95736.31
2018-12-15T23:32:42.490Z,95726.20
2018-12-15T23:35:17.587Z,95732.09
2018-12-15T23:37:52.186Z,95728.84
2018-12-15T23:40:27.258Z,95737.99
2018-12-15T23:43:02.298Z,95728.45
2018-12-15T23:45:37.338Z,95723.33
2018-12-15T23:48:12.462Z,95713.42
2018-12-15T23:50:46.978Z,95707.31
2018-12-15T23:53:22.064Z,95704.33
2018-12-15T23:55:56.457Z,95697.06
2018-12-15T23:58:30.826Z,95685.59
